createdAt,value
2022-12-14T00:00:27.493Z,-5.13
2022-12-14T00:05:56.612Z,-5.19
2022-12-14T00:16:32.155Z,-5.36
2022-12-14T00:21:45.507Z,-5.51
2022-12-14T00:26:56.683Z,-5.60
2022-12-14T00:32:01.018Z,-5.65
2022-12-14T00:37:06.991Z,-5.75
2022-12-14T00:42:11.529Z,-5.85
2022-12-14T00:47:17.257Z,-5.89
2022-12-14T00:52:24.294Z,-5.92
2022-12-14T00:57:32.109Z,-5.95
2022-12-14T01:02:40.208Z,-6.01
2022-12-14T01:07:49.353Z,-6.06
2022-12-14T01:12:54.764Z,-6.11
2022-12-14T01:18:01.022Z,-6.19
2022-12-14T01:23:09.580Z,-6.22
2022-12-14T01:28:18.489Z,-6.27
2022-12-14T01:33:27.011Z,-6.31
2022-12-14T01:38:34.538Z,-6.35
2022-12-14T01:44:03.016Z,-6.40
2022-12-14T01:49:22.431Z,-6.44
2022-12-14T01:54:32.700Z,-6.46
2022-12-14T01:59:46.187Z,-6.46
2022-12-14T02:04:56.115Z,-6.45
2022-12-14T02:10:03.158Z,-6.40
2022-12-14T02:15:06.931Z,-6.36
2022-12-14T02:20:11.830Z,-6.33
2022-12-14T02:25:27.424Z,-6.30
2022-12-14T02:30:39.498Z,-6.21
2022-12-14T02:36:20.494Z,-6.15
2022-12-14T02:41:28.716Z,-6.08
2022-12-14T02:46:50.091Z,-5.99
2022-12-14T02:52:07.288Z,-5.92
2022-12-14T02:58:06.716Z,-5.86
2022-12-14T03:03:10.229Z,-5.80
2022-12-14T03:08:16.821Z,-5.78
2022-12-14T03:13:22.898Z,-5.79
2022-12-14T03:18:29.022Z,-5.79
2022-12-14T03:23:38.631Z,-5.81
2022-12-14T03:28:52.078Z,-5.86
2022-12-14T03:33:59.183Z,-5.96
2022-12-14T03:39:07.716Z,-6.03
2022-12-14T03:44:29.556Z,-6.09
2022-12-14T03:49:57.134Z,-6.14
2022-12-14T03:55:34.240Z,-6.19
2022-12-14T04:00:50.630Z,-6.24
2022-12-14T04:06:04.410Z,-6.30
2022-12-14T04:11:30.659Z,-6.30
2022-12-14T04:17:00.493Z,-6.32
2022-12-14T04:22:09.283Z,-6.31
2022-12-14T04:27:32.407Z,-6.28
2022-12-14T04:32:52.889Z,-6.25
2022-12-14T04:38:18.914Z,-6.18
2022-12-14T04:43:27.079Z,-6.10
2022-12-14T04:48:45.965Z,-6.09
2022-12-14T04:53:56.240Z,-6.14
2022-12-14T04:59:00.480Z,-6.17
2022-12-14T05:04:22.211Z,-6.20
2022-12-14T05:10:04.764Z,-6.21
2022-12-14T05:15:13.688Z,-6.23
2022-12-14T05:20:21.194Z,-6.22
2022-12-14T05:25:24.816Z,-6.22
2022-12-14T05:30:28.273Z,-6.21
2022-12-14T05:35:31.740Z,-6.19
2022-12-14T05:40:35.048Z,-6.18
2022-12-14T05:45:38.399Z,-6.22
2022-12-14T05:50:42.184Z,-6.24
2022-12-14T05:55:53.481Z,-6.24
2022-12-14T06:01:04.164Z,-6.23
2022-12-14T06:06:11.321Z,-6.20
2022-12-14T06:11:19.606Z,-6.19
2022-12-14T06:16:25.669Z,-6.22
2022-12-14T06:21:33.366Z,-6.30
2022-12-14T06:26:37.304Z,-6.37
2022-12-14T06:31:40.623Z,-6.36
2022-12-14T06:36:44.138Z,-6.40
2022-12-14T06:41:51.198Z,-6.44
2022-12-14T06:46:54.670Z,-6.47
2022-12-14T06:51:58.264Z,-6.48
2022-12-14T06:57:01.880Z,-6.47
2022-12-14T07:02:05.267Z,-6.46
2022-12-14T07:07:08.809Z,-6.44
2022-12-14T07:12:12.429Z,-6.43
2022-12-14T07:17:15.738Z,-6.40
2022-12-14T07:22:20.354Z,-6.37
2022-12-14T07:27:25.025Z,-6.28
2022-12-14T07:32:28.441Z,-6.20
2022-12-14T07:37:31.746Z,-6.16
2022-12-14T07:42:35.163Z,-6.10
2022-12-14T07:47:38.469Z,-6.09
2022-12-14T07:52:41.987Z,-6.09
2022-12-14T07:57:45.500Z,-6.03
2022-12-14T08:02:48.973Z,-5.97
2022-12-14T08:07:52.447Z,-5.87
2022-12-14T08:12:56.252Z,-5.74
2022-12-14T08:17:59.665Z,-5.64
2022-12-14T08:23:03.391Z,-5.48
2022-12-14T08:28:06.798Z,-5.33
2022-12-14T08:33:10.211Z,-5.14
2022-12-14T08:38:13.829Z,-5.01
2022-12-14T08:43:25.459Z,-4.97
2022-12-14T08:48:29.566Z,-4.88
2022-12-14T08:53:33.315Z,-4.80
2022-12-14T08:58:38.045Z,-4.89
2022-12-14T09:03:42.651Z,-4.97
2022-12-14T09:08:47.161Z,-4.99
2022-12-14T09:13:57.072Z,-5.01
2022-12-14T09:19:00.795Z,-5.10
2022-12-14T09:24:06.327Z,-5.24
2022-12-14T09:29:16.325Z,-5.35
2022-12-14T09:34:19.745Z,-5.53
2022-12-14T09:39:23.150Z,-5.58
2022-12-14T09:44:44.280Z,-5.53
2022-12-14T09:49:53.740Z,-5.35
2022-12-14T09:54:58.684Z,-5.18
2022-12-14T10:00:02.304Z,-5.00
2022-12-14T10:05:14.624Z,-5.03
2022-12-14T10:10:56.333Z,-5.12
2022-12-14T10:16:19.046Z,-5.14
2022-12-14T10:21:25.278Z,-5.16
2022-12-14T10:26:40.575Z,-5.13
2022-12-14T10:32:05.537Z,-5.04
2022-12-14T10:37:14.736Z,-4.88
2022-12-14T10:42:43.099Z,-4.78
2022-12-14T10:47:57.919Z,-4.70
2022-12-14T10:53:04.501Z,-4.57
2022-12-14T10:58:11.242Z,-4.61
2022-12-14T11:03:16.135Z,-4.74
2022-12-14T11:08:51.912Z,-4.80
2022-12-14T11:14:07.820Z,-4.81
2022-12-14T11:19:23.031Z,-4.71
2022-12-14T11:24:29.084Z,-4.54
2022-12-14T11:29:37.036Z,-4.40
2022-12-14T11:34:43.692Z,-4.34
2022-12-14T11:39:52.381Z,-4.30
2022-12-14T11:45:15.709Z,-4.19
2022-12-14T11:50:25.385Z,-4.21
2022-12-14T11:55:29.504Z,-4.22
2022-12-14T12:00:56.566Z,-4.19
2022-12-14T12:06:05.001Z,-4.16
2022-12-14T12:11:24.076Z,-4.06
2022-12-14T12:16:29.441Z,-4.01
2022-12-14T12:21:37.166Z,-4.01
2022-12-14T12:26:55.001Z,-4.04
2022-12-14T12:32:07.636Z,-4.09
2022-12-14T12:37:31.270Z,-4.13
2022-12-14T12:42:45.484Z,-4.18
2022-12-14T12:47:56.268Z,-4.23
2022-12-14T12:53:05.010Z,-4.31
2022-12-14T12:58:19.584Z,-4.37
2022-12-14T13:03:28.365Z,-4.39
2022-12-14T13:08:39.425Z,-4.53
2022-12-14T13:13:51.839Z,-4.69
2022-12-14T13:19:32.087Z,-4.85
2022-12-14T13:24:26.313Z,-4.99
2022-12-14T13:29:51.641Z,-5.07
2022-12-14T13:35:26.391Z,-5.12
2022-12-14T13:40:43.524Z,-5.22
2022-12-14T13:45:49.586Z,-5.37
2022-12-14T13:51:03.661Z,-5.45
2022-12-14T13:56:07.686Z,-5.59
2022-12-14T14:01:13.940Z,-5.80
2022-12-14T14:06:56.291Z,-6.01
2022-12-14T14:12:00.834Z,-6.17
2022-12-14T14:17:29.510Z,-6.38
2022-12-14T14:22:32.950Z,-6.53
2022-12-14T14:27:42.307Z,-6.68
2022-12-14T14:32:46.044Z,-6.81
2022-12-14T14:38:02.243Z,-6.90
2022-12-14T14:43:23.266Z,-7.00
2022-12-14T14:48:39.682Z,-7.17
2022-12-14T14:53:43.507Z,-7.28
2022-12-14T14:58:46.925Z,-7.38
2022-12-14T15:03:56.559Z,-7.49
2022-12-14T15:09:12.488Z,-7.55
2022-12-14T15:14:26.670Z,-7.63
2022-12-14T15:19:36.715Z,-7.70
2022-12-14T15:24:43.307Z,-7.75
2022-12-14T15:29:49.309Z,-7.83
2022-12-14T15:35:09.915Z,-7.90
2022-12-14T15:40:22.540Z,-7.92
2022-12-14T15:45:30.544Z,-7.95
2022-12-14T15:50:35.286Z,-7.96
2022-12-14T15:55:42.137Z,-7.98
2022-12-14T16:00:49.787Z,-8.01
2022-12-14T16:05:54.127Z,-8.04
2022-12-14T16:11:01.946Z,-8.08
2022-12-14T16:16:10.170Z,-8.08
2022-12-14T16:21:29.762Z,-8.10
2022-12-14T16:26:38.914Z,-8.09
2022-12-14T16:31:42.694Z,-8.11
2022-12-14T16:37:14.596Z,-8.15
2022-12-14T16:42:19.869Z,-8.17
2022-12-14T16:47:27.177Z,-8.18
2022-12-14T16:52:33.416Z,-8.18
2022-12-14T16:57:41.477Z,-8.16
2022-12-14T17:02:57.201Z,-8.14
2022-12-14T17:08:00.796Z,-8.11
2022-12-14T17:13:04.211Z,-8.08
2022-12-14T17:18:08.233Z,-8.03
2022-12-14T17:23:17.098Z,-8.03
2022-12-14T17:28:27.483Z,-8.03
2022-12-14T17:33:32.499Z,-8.01
2022-12-14T17:38:36.530Z,-8.01
2022-12-14T17:43:44.205Z,-7.99
2022-12-14T17:48:54.723Z,-7.97
2022-12-14T17:53:59.776Z,-7.95
2022-12-14T17:59:02.982Z,-7.92
2022-12-14T18:04:06.481Z,-7.88
2022-12-14T18:09:10.630Z,-7.92
2022-12-14T18:14:15.913Z,-7.94
2022-12-14T18:19:19.403Z,-7.93
2022-12-14T18:24:26.055Z,-7.94
2022-12-14T18:29:30.019Z,-8.00
2022-12-14T18:34:33.430Z,-8.11
2022-12-14T18:39:36.945Z,-8.17
2022-12-14T18:44:40.358Z,-8.22
2022-12-14T18:49:43.976Z,-8.25
2022-12-14T18:54:47.593Z,-8.27
2022-12-14T18:59:51.173Z,-8.27
2022-12-14T19:04:56.900Z,-8.25
2022-12-14T19:10:07.848Z,-8.25
2022-12-14T19:15:27.560Z,-8.25
2022-12-14T19:21:00.310Z,-8.24
2022-12-14T19:26:05.824Z,-8.23
2022-12-14T19:31:11.329Z,-8.25
2022-12-14T19:36:14.802Z,-8.28
2022-12-14T19:41:20.765Z,-8.31
2022-12-14T19:46:24.809Z,-8.29
2022-12-14T19:51:28.422Z,-8.28
2022-12-14T19:56:31.937Z,-8.27
2022-12-14T20:01:41.940Z,-8.29
2022-12-14T20:06:49.839Z,-8.28
2022-12-14T20:11:55.131Z,-8.32
2022-12-14T20:16:58.551Z,-8.30
2022-12-14T20:22:08.056Z,-8.30
2022-12-14T20:27:12.075Z,-8.31
2022-12-14T20:32:15.894Z,-8.34
2022-12-14T20:37:21.012Z,-8.37
2022-12-14T20:42:26.481Z,-8.39
2022-12-14T20:47:30.231Z,-8.41
2022-12-14T20:52:33.744Z,-8.44
2022-12-14T20:57:38.200Z,-8.50
2022-12-14T21:02:43.047Z,-8.54
2022-12-14T21:07:46.754Z,-8.59
2022-12-14T21:12:50.061Z,-8.61
2022-12-14T21:17:53.406Z,-8.61
2022-12-14T21:22:57.706Z,-8.65
2022-12-14T21:28:01.018Z,-8.67
2022-12-14T21:33:04.645Z,-8.70
2022-12-14T21:38:08.048Z,-8.73
2022-12-14T21:43:13.100Z,-8.74
2022-12-14T21:48:16.413Z,-8.79
2022-12-14T21:53:19.720Z,-8.81
2022-12-14T21:58:24.978Z,-8.82
2022-12-14T22:03:28.468Z,-8.79
2022-12-14T22:08:32.326Z,-8.80
2022-12-14T22:13:35.934Z,-8.85
2022-12-14T22:18:39.243Z,-8.92
2022-12-14T22:23:43.832Z,-8.93
2022-12-14T22:28:52.543Z,-8.93
2022-12-14T22:33:55.937Z,-8.93
2022-12-14T22:39:00.076Z,-9.01
2022-12-14T22:44:04.252Z,-9.05
2022-12-14T22:49:07.505Z,-9.06
2022-12-14T22:54:22.907Z,-9.06
2022-12-14T22:59:30.574Z,-9.06
2022-12-14T23:04:34.232Z,-9.12
2022-12-14T23:09:56.076Z,-9.12
2022-12-14T23:15:18.637Z,-9.10
2022-12-14T23:20:40.790Z,-9.05
2022-12-14T23:26:03.045Z,-9.02
2022-12-14T23:31:25.237Z,-8.99
2022-12-14T23:36:47.560Z,-8.91
2022-12-14T23:42:09.911Z,-8.85
2022-12-14T23:47:32.065Z,-8.87
2022-12-14T23:52:54.317Z,-8.85
2022-12-14T23:58:16.675Z,-8.76
